sensor_id;sensor_type;location;lat;lon;timestamp;P1;durP1;ratioP1;P2;durP2;ratioP2
20318;SDS011;10317;47.254;11.314;2024-01-30T00:01:23;8.68;;;5.70;;
20318;SDS011;10317;47.254;11.314;2024-01-30T00:03:49;7.80;;;4.43;;
20318;SDS011;10317;47.254;11.314;2024-01-30T00:06:18;6.57;;;4.80;;
20318;SDS011;10317;47.254;11.314;2024-01-30T00:08:46;8.23;;;5.72;;
20318;SDS011;10317;47.254;11.314;2024-01-30T00:11:13;6.47;;;4.93;;
20318;SDS011;10317;47.254;11.314;2024-01-30T00:13:40;11.00;;;6.47;;
20318;SDS011;10317;47.254;11.314;2024-01-30T00:16:06;9.20;;;5.68;;
20318;SDS011;10317;47.254;11.314;2024-01-30T00:18:32;8.27;;;5.40;;
20318;SDS011;10317;47.254;11.314;2024-01-30T00:20:57;7.80;;;5.13;;
20318;SDS011;10317;47.254;11.314;2024-01-30T00:23:23;7.18;;;4.32;;
20318;SDS011;10317;47.254;11.314;2024-01-30T00:25:49;7.82;;;4.97;;
20318;SDS011;10317;47.254;11.314;2024-01-30T00:28:15;8.40;;;5.22;;
20318;SDS011;10317;47.254;11.314;2024-01-30T00:30:41;7.05;;;4.70;;
20318;SDS011;10317;47.254;11.314;2024-01-30T00:33:07;7.40;;;4.93;;
20318;SDS011;10317;47.254;11.314;2024-01-30T00:35:34;7.20;;;4.88;;
20318;SDS011;10317;47.254;11.314;2024-01-30T00:37:59;12.35;;;5.55;;
20318;SDS011;10317;47.254;11.314;2024-01-30T00:40:25;4.68;;;4.22;;
20318;SDS011;10317;47.254;11.314;2024-01-30T00:42:51;7.35;;;4.65;;
20318;SDS011;10317;47.254;11.314;2024-01-30T00:45:17;5.25;;;4.53;;
20318;SDS011;10317;47.254;11.314;2024-01-30T00:47:43;5.60;;;4.95;;
20318;SDS011;10317;47.254;11.314;2024-01-30T00:50:09;8.48;;;5.07;;
20318;SDS011;10317;47.254;11.314;2024-01-30T00:52:35;7.28;;;4.38;;
20318;SDS011;10317;47.254;11.314;2024-01-30T00:55:01;9.05;;;5.28;;
20318;SDS011;10317;47.254;11.314;2024-01-30T00:57:27;7.72;;;5.00;;
20318;SDS011;10317;47.254;11.314;2024-01-30T00:59:53;9.05;;;5.10;;
20318;SDS011;10317;47.254;11.314;2024-01-30T01:02:19;8.65;;;5.05;;
20318;SDS011;10317;47.254;11.314;2024-01-30T01:04:45;7.20;;;5.15;;
20318;SDS011;10317;47.254;11.314;2024-01-30T01:07:11;5.10;;;4.15;;
20318;SDS011;10317;47.254;11.314;2024-01-30T01:09:37;5.55;;;4.97;;
20318;SDS011;10317;47.254;11.314;2024-01-30T01:12:03;10.82;;;5.63;;
20318;SDS011;10317;47.254;11.314;2024-01-30T01:14:29;5.90;;;4.50;;
20318;SDS011;10317;47.254;11.314;2024-01-30T01:16:55;7.35;;;4.63;;
20318;SDS011;10317;47.254;11.314;2024-01-30T01:19:21;7.93;;;4.90;;
20318;SDS011;10317;47.254;11.314;2024-01-30T01:21:47;8.32;;;4.18;;
20318;SDS011;10317;47.254;11.314;2024-01-30T01:24:12;6.55;;;4.90;;
20318;SDS011;10317;47.254;11.314;2024-01-30T01:26:38;8.98;;;4.97;;
20318;SDS011;10317;47.254;11.314;2024-01-30T01:29:04;10.95;;;5.78;;
20318;SDS011;10317;47.254;11.314;2024-01-30T01:31:35;8.50;;;5.40;;
20318;SDS011;10317;47.254;11.314;2024-01-30T01:34:05;8.10;;;4.80;;
20318;SDS011;10317;47.254;11.314;2024-01-30T01:36:31;10.65;;;4.75;;
20318;SDS011;10317;47.254;11.314;2024-01-30T01:38:57;6.35;;;4.85;;
20318;SDS011;10317;47.254;11.314;2024-01-30T01:41:22;6.70;;;5.00;;
20318;SDS011;10317;47.254;11.314;2024-01-30T01:43:48;8.70;;;5.88;;
20318;SDS011;10317;47.254;11.314;2024-01-30T01:46:13;6.50;;;4.53;;
20318;SDS011;10317;47.254;11.314;2024-01-30T01:48:40;8.35;;;5.38;;
20318;SDS011;10317;47.254;11.314;2024-01-30T01:51:07;11.95;;;6.18;;
20318;SDS011;10317;47.254;11.314;2024-01-30T01:53:34;8.43;;;5.50;;
20318;SDS011;10317;47.254;11.314;2024-01-30T01:56:00;6.85;;;5.18;;
20318;SDS011;10317;47.254;11.314;2024-01-30T01:58:26;6.28;;;4.65;;
20318;SDS011;10317;47.254;11.314;2024-01-30T02:00:54;7.88;;;5.53;;
20318;SDS011;10317;47.254;11.314;2024-01-30T02:03:21;11.45;;;6.18;;
20318;SDS011;10317;47.254;11.314;2024-01-30T02:05:46;9.07;;;5.72;;
20318;SDS011;10317;47.254;11.314;2024-01-30T02:08:12;10.18;;;5.55;;
20318;SDS011;10317;47.254;11.314;2024-01-30T02:10:38;5.40;;;4.43;;
20318;SDS011;10317;47.254;11.314;2024-01-30T02:13:03;6.88;;;4.63;;
20318;SDS011;10317;47.254;11.314;2024-01-30T02:15:29;10.57;;;5.25;;
20318;SDS011;10317;47.254;11.314;2024-01-30T02:17:55;7.63;;;5.75;;
20318;SDS011;10317;47.254;11.314;2024-01-30T02:20:21;7.82;;;5.68;;
20318;SDS011;10317;47.254;11.314;2024-01-30T02:22:49;9.68;;;6.00;;
20318;SDS011;10317;47.254;11.314;2024-01-30T02:25:16;10.50;;;5.05;;
20318;SDS011;10317;47.254;11.314;2024-01-30T02:27:42;9.80;;;6.47;;
20318;SDS011;10317;47.254;11.314;2024-01-30T02:30:07;12.05;;;5.95;;
20318;SDS011;10317;47.254;11.314;2024-01-30T02:32:33;8.77;;;6.07;;
20318;SDS011;10317;47.254;11.314;2024-01-30T02:34:59;8.52;;;5.40;;
20318;SDS011;10317;47.254;11.314;2024-01-30T02:37:25;10.52;;;6.53;;
20318;SDS011;10317;47.254;11.314;2024-01-30T02:39:50;10.60;;;5.65;;
20318;SDS011;10317;47.254;11.314;2024-01-30T02:42:16;7.20;;;5.07;;
20318;SDS011;10317;47.254;11.314;2024-01-30T02:44:42;9.95;;;5.53;;
20318;SDS011;10317;47.254;11.314;2024-01-30T02:47:07;5.78;;;5.07;;
20318;SDS011;10317;47.254;11.314;2024-01-30T02:49:33;12.65;;;6.25;;
20318;SDS011;10317;47.254;11.314;2024-01-30T02:51:58;10.20;;;5.38;;
20318;SDS011;10317;47.254;11.314;2024-01-30T02:54:24;9.23;;;5.40;;
20318;SDS011;10317;47.254;11.314;2024-01-30T02:56:50;9.20;;;5.57;;
20318;SDS011;10317;47.254;11.314;2024-01-30T02:59:16;13.02;;;5.68;;
20318;SDS011;10317;47.254;11.314;2024-01-30T03:01:42;11.43;;;5.18;;
20318;SDS011;10317;47.254;11.314;2024-01-30T03:04:09;7.28;;;5.25;;
20318;SDS011;10317;47.254;11.314;2024-01-30T03:06:35;7.45;;;5.38;;
20318;SDS011;10317;47.254;11.314;2024-01-30T03:09:00;10.63;;;6.10;;
20318;SDS011;10317;47.254;11.314;2024-01-30T03:11:26;9.68;;;5.97;;
20318;SDS011;10317;47.254;11.314;2024-01-30T03:13:52;10.30;;;5.70;;
20318;SDS011;10317;47.254;11.314;2024-01-30T03:16:17;10.15;;;5.72;;
20318;SDS011;10317;47.254;11.314;2024-01-30T03:18:43;9.90;;;5.65;;
20318;SDS011;10317;47.254;11.314;2024-01-30T03:21:09;9.45;;;5.53;;
20318;SDS011;10317;47.254;11.314;2024-01-30T03:23:34;12.00;;;4.95;;
20318;SDS011;10317;47.254;11.314;2024-01-30T03:26:00;9.30;;;5.43;;
20318;SDS011;10317;47.254;11.314;2024-01-30T03:28:26;11.27;;;5.18;;
20318;SDS011;10317;47.254;11.314;2024-01-30T03:30:51;10.40;;;6.03;;
20318;SDS011;10317;47.254;11.314;2024-01-30T03:33:17;7.55;;;5.32;;
20318;SDS011;10317;47.254;11.314;2024-01-30T03:35:42;8.10;;;5.93;;
20318;SDS011;10317;47.254;11.314;2024-01-30T03:38:08;8.00;;;5.22;;
20318;SDS011;10317;47.254;11.314;2024-01-30T03:40:34;15.18;;;5.45;;
20318;SDS011;10317;47.254;11.314;2024-01-30T03:42:59;11.07;;;5.85;;
20318;SDS011;10317;47.254;11.314;2024-01-30T03:45:25;9.75;;;5.32;;
20318;SDS011;10317;47.254;11.314;2024-01-30T03:47:50;6.88;;;5.57;;
20318;SDS011;10317;47.254;11.314;2024-01-30T03:50:16;7.30;;;5.07;;
20318;SDS011;10317;47.254;11.314;2024-01-30T03:52:42;9.73;;;6.18;;
20318;SDS011;10317;47.254;11.314;2024-01-30T03:55:07;7.30;;;4.95;;
20318;SDS011;10317;47.254;11.314;2024-01-30T03:57:33;11.40;;;5.55;;
20318;SDS011;10317;47.254;11.314;2024-01-30T03:59:59;10.07;;;6.03;;
20318;SDS011;10317;47.254;11.314;2024-01-30T04:02:24;10.45;;;5.70;;
20318;SDS011;10317;47.254;11.314;2024-01-30T04:04:50;9.75;;;5.88;;
20318;SDS011;10317;47.254;11.314;2024-01-30T04:07:16;8.32;;;5.10;;
20318;SDS011;10317;47.254;11.314;2024-01-30T04:09:41;8.05;;;4.95;;
20318;SDS011;10317;47.254;11.314;2024-01-30T04:12:07;11.10;;;5.55;;
20318;SDS011;10317;47.254;11.314;2024-01-30T04:14:33;9.15;;;6.03;;
20318;SDS011;10317;47.254;11.314;2024-01-30T04:16:58;7.10;;;5.82;;
20318;SDS011;10317;47.254;11.314;2024-01-30T04:19:24;8.45;;;6.25;;
20318;SDS011;10317;47.254;11.314;2024-01-30T04:21:50;7.68;;;5.43;;
20318;SDS011;10317;47.254;11.314;2024-01-30T04:24:15;10.80;;;5.63;;
20318;SDS011;10317;47.254;11.314;2024-01-30T04:26:43;8.80;;;5.85;;
20318;SDS011;10317;47.254;11.314;2024-01-30T04:29:09;9.55;;;5.57;;
20318;SDS011;10317;47.254;11.314;2024-01-30T04:31:36;12.13;;;5.82;;
20318;SDS011;10317;47.254;11.314;2024-01-30T04:34:02;8.70;;;5.75;;
20318;SDS011;10317;47.254;11.314;2024-01-30T04:36:27;10.70;;;5.45;;
20318;SDS011;10317;47.254;11.314;2024-01-30T04:38:53;6.97;;;4.70;;
20318;SDS011;10317;47.254;11.314;2024-01-30T04:41:18;7.25;;;4.70;;
20318;SDS011;10317;47.254;11.314;2024-01-30T04:43:44;7.07;;;5.50;;
20318;SDS011;10317;47.254;11.314;2024-01-30T04:46:10;11.52;;;5.72;;
20318;SDS011;10317;47.254;11.314;2024-01-30T04:48:35;6.68;;;5.30;;
20318;SDS011;10317;47.254;11.314;2024-01-30T04:51:01;8.10;;;4.93;;
20318;SDS011;10317;47.254;11.314;2024-01-30T04:53:29;6.05;;;5.32;;
20318;SDS011;10317;47.254;11.314;2024-01-30T04:55:56;8.55;;;4.97;;
20318;SDS011;10317;47.254;11.314;2024-01-30T04:58:21;5.93;;;4.57;;
20318;SDS011;10317;47.254;11.314;2024-01-30T05:00:47;4.97;;;4.57;;
20318;SDS011;10317;47.254;11.314;2024-01-30T05:03:16;8.50;;;5.00;;
20318;SDS011;10317;47.254;11.314;2024-01-30T05:05:42;7.47;;;5.82;;
20318;SDS011;10317;47.254;11.314;2024-01-30T05:08:08;6.43;;;4.65;;
20318;SDS011;10317;47.254;11.314;2024-01-30T05:10:34;7.18;;;6.38;;
20318;SDS011;10317;47.254;11.314;2024-01-30T05:12:59;7.93;;;6.05;;
20318;SDS011;10317;47.254;11.314;2024-01-30T05:15:25;8.00;;;5.90;;
20318;SDS011;10317;47.254;11.314;2024-01-30T05:17:51;7.63;;;4.93;;
20318;SDS011;10317;47.254;11.314;2024-01-30T05:20:16;7.50;;;5.57;;
20318;SDS011;10317;47.254;11.314;2024-01-30T05:22:42;5.75;;;5.15;;
20318;SDS011;10317;47.254;11.314;2024-01-30T05:25:10;7.85;;;5.43;;
20318;SDS011;10317;47.254;11.314;2024-01-30T05:27:37;7.10;;;5.18;;
20318;SDS011;10317;47.254;11.314;2024-01-30T05:30:02;8.25;;;5.60;;
20318;SDS011;10317;47.254;11.314;2024-01-30T05:32:29;17.63;;;9.40;;
20318;SDS011;10317;47.254;11.314;2024-01-30T05:34:55;14.35;;;7.45;;
20318;SDS011;10317;47.254;11.314;2024-01-30T05:37:20;8.38;;;5.95;;
20318;SDS011;10317;47.254;11.314;2024-01-30T05:39:46;11.57;;;6.53;;
20318;SDS011;10317;47.254;11.314;2024-01-30T05:42:12;7.22;;;5.20;;
20318;SDS011;10317;47.254;11.314;2024-01-30T05:44:37;8.93;;;5.95;;
20318;SDS011;10317;47.254;11.314;2024-01-30T05:47:03;7.30;;;5.10;;
20318;SDS011;10317;47.254;11.314;2024-01-30T05:49:29;6.00;;;4.80;;
20318;SDS011;10317;47.254;11.314;2024-01-30T05:51:55;10.32;;;5.38;;
20318;SDS011;10317;47.254;11.314;2024-01-30T05:54:20;7.63;;;5.05;;
20318;SDS011;10317;47.254;11.314;2024-01-30T05:56:46;7.07;;;4.68;;
20318;SDS011;10317;47.254;11.314;2024-01-30T05:59:12;7.20;;;5.05;;
20318;SDS011;10317;47.254;11.314;2024-01-30T06:01:37;7.10;;;4.82;;
20318;SDS011;10317;47.254;11.314;2024-01-30T06:04:03;5.47;;;4.30;;
20318;SDS011;10317;47.254;11.314;2024-01-30T06:06:29;4.70;;;3.95;;
20318;SDS011;10317;47.254;11.314;2024-01-30T06:08:54;7.90;;;4.57;;
20318;SDS011;10317;47.254;11.314;2024-01-30T06:11:21;7.25;;;4.70;;
20318;SDS011;10317;47.254;11.314;2024-01-30T06:13:46;6.38;;;4.35;;
20318;SDS011;10317;47.254;11.314;2024-01-30T06:16:12;4.32;;;3.90;;
20318;SDS011;10317;47.254;11.314;2024-01-30T06:18:38;8.05;;;5.10;;
20318;SDS011;10317;47.254;11.314;2024-01-30T06:21:04;7.88;;;4.50;;
20318;SDS011;10317;47.254;11.314;2024-01-30T06:23:30;7.03;;;4.78;;
20318;SDS011;10317;47.254;11.314;2024-01-30T06:25:55;5.30;;;4.60;;
20318;SDS011;10317;47.254;11.314;2024-01-30T06:28:21;10.57;;;4.28;;
20318;SDS011;10317;47.254;11.314;2024-01-30T06:30:47;6.55;;;4.47;;
20318;SDS011;10317;47.254;11.314;2024-01-30T06:33:13;5.60;;;4.38;;
20318;SDS011;10317;47.254;11.314;2024-01-30T06:35:38;7.00;;;5.40;;
20318;SDS011;10317;47.254;11.314;2024-01-30T06:38:05;6.28;;;5.05;;
20318;SDS011;10317;47.254;11.314;2024-01-30T06:40:31;8.10;;;4.82;;
20318;SDS011;10317;47.254;11.314;2024-01-30T06:42:57;10.20;;;4.88;;
20318;SDS011;10317;47.254;11.314;2024-01-30T06:45:22;7.75;;;4.65;;
20318;SDS011;10317;47.254;11.314;2024-01-30T06:47:48;7.78;;;5.10;;
20318;SDS011;10317;47.254;11.314;2024-01-30T06:50:14;7.63;;;4.85;;
20318;SDS011;10317;47.254;11.314;2024-01-30T06:52:39;4.88;;;3.72;;
20318;SDS011;10317;47.254;11.314;2024-01-30T06:55:05;6.32;;;4.75;;
20318;SDS011;10317;47.254;11.314;2024-01-30T06:57:31;10.95;;;5.32;;
20318;SDS011;10317;47.254;11.314;2024-01-30T06:59:57;8.30;;;4.38;;
20318;SDS011;10317;47.254;11.314;2024-01-30T07:02:23;5.20;;;4.70;;
20318;SDS011;10317;47.254;11.314;2024-01-30T07:04:48;4.60;;;4.20;;
20318;SDS011;10317;47.254;11.314;2024-01-30T07:07:15;9.70;;;3.85;;
20318;SDS011;10317;47.254;11.314;2024-01-30T07:09:41;7.75;;;4.65;;
20318;SDS011;10317;47.254;11.314;2024-01-30T07:12:07;7.22;;;4.82;;
20318;SDS011;10317;47.254;11.314;2024-01-30T07:14:33;7.10;;;4.80;;
20318;SDS011;10317;47.254;11.314;2024-01-30T07:16:58;6.88;;;4.90;;
20318;SDS011;10317;47.254;11.314;2024-01-30T07:19:24;9.45;;;5.00;;
20318;SDS011;10317;47.254;11.314;2024-01-30T07:21:50;5.30;;;4.53;;
20318;SDS011;10317;47.254;11.314;2024-01-30T07:24:15;7.85;;;4.43;;
20318;SDS011;10317;47.254;11.314;2024-01-30T07:26:41;8.00;;;4.63;;
20318;SDS011;10317;47.254;11.314;2024-01-30T07:29:07;7.20;;;4.45;;
20318;SDS011;10317;47.254;11.314;2024-01-30T07:31:32;8.18;;;4.13;;
20318;SDS011;10317;47.254;11.314;2024-01-30T07:33:58;7.05;;;4.63;;
20318;SDS011;10317;47.254;11.314;2024-01-30T07:36:23;7.32;;;4.53;;
20318;SDS011;10317;47.254;11.314;2024-01-30T07:38:49;5.47;;;4.28;;
20318;SDS011;10317;47.254;11.314;2024-01-30T07:41:15;5.32;;;4.47;;
20318;SDS011;10317;47.254;11.314;2024-01-30T07:43:40;5.57;;;4.50;;
20318;SDS011;10317;47.254;11.314;2024-01-30T07:46:08;5.57;;;4.07;;
20318;SDS011;10317;47.254;11.314;2024-01-30T07:48:33;8.13;;;5.18;;
20318;SDS011;10317;47.254;11.314;2024-01-30T07:50:59;6.50;;;4.22;;
20318;SDS011;10317;47.254;11.314;2024-01-30T07:53:25;5.80;;;4.47;;
20318;SDS011;10317;47.254;11.314;2024-01-30T07:55:52;5.72;;;4.88;;
20318;SDS011;10317;47.254;11.314;2024-01-30T07:58:17;4.80;;;4.30;;
20318;SDS011;10317;47.254;11.314;2024-01-30T08:00:44;4.93;;;3.85;;
20318;SDS011;10317;47.254;11.314;2024-01-30T08:03:10;4.53;;;4.05;;
20318;SDS011;10317;47.254;11.314;2024-01-30T08:05:35;4.38;;;3.97;;
20318;SDS011;10317;47.254;11.314;2024-01-30T08:08:01;4.28;;;3.95;;
20318;SDS011;10317;47.254;11.314;2024-01-30T08:10:27;5.00;;;3.47;;
20318;SDS011;10317;47.254;11.314;2024-01-30T08:12:52;4.38;;;3.97;;
20318;SDS011;10317;47.254;11.314;2024-01-30T08:15:18;5.82;;;3.53;;
20318;SDS011;10317;47.254;11.314;2024-01-30T08:17:44;3.55;;;3.35;;
20318;SDS011;10317;47.254;11.314;2024-01-30T08:20:10;3.80;;;3.45;;
20318;SDS011;10317;47.254;11.314;2024-01-30T08:22:38;4.53;;;3.25;;
20318;SDS011;10317;47.254;11.314;2024-01-30T08:25:05;5.00;;;3.83;;
20318;SDS011;10317;47.254;11.314;2024-01-30T08:27:31;4.45;;;3.83;;
20318;SDS011;10317;47.254;11.314;2024-01-30T08:29:57;3.95;;;3.63;;
20318;SDS011;10317;47.254;11.314;2024-01-30T08:32:23;6.75;;;3.75;;
20318;SDS011;10317;47.254;11.314;2024-01-30T08:34:49;7.05;;;4.40;;
20318;SDS011;10317;47.254;11.314;2024-01-30T08:37:14;7.93;;;3.75;;
20318;SDS011;10317;47.254;11.314;2024-01-30T08:39:41;4.32;;;3.70;;
20318;SDS011;10317;47.254;11.314;2024-01-30T08:42:08;6.10;;;4.57;;
20318;SDS011;10317;47.254;11.314;2024-01-30T08:44:34;4.53;;;4.13;;
20318;SDS011;10317;47.254;11.314;2024-01-30T08:47:00;5.25;;;3.90;;
20318;SDS011;10317;47.254;11.314;2024-01-30T08:49:25;9.50;;;3.83;;
20318;SDS011;10317;47.254;11.314;2024-01-30T08:51:51;5.50;;;4.43;;
20318;SDS011;10317;47.254;11.314;2024-01-30T08:54:16;6.10;;;4.15;;
20318;SDS011;10317;47.254;11.314;2024-01-30T08:56:42;7.18;;;4.47;;
20318;SDS011;10317;47.254;11.314;2024-01-30T08:59:08;8.82;;;4.78;;
20318;SDS011;10317;47.254;11.314;2024-01-30T09:01:34;6.97;;;4.25;;
20318;SDS011;10317;47.254;11.314;2024-01-30T09:03:59;6.55;;;4.72;;
20318;SDS011;10317;47.254;11.314;2024-01-30T09:06:25;7.60;;;4.68;;
20318;SDS011;10317;47.254;11.314;2024-01-30T09:08:53;5.13;;;4.13;;
20318;SDS011;10317;47.254;11.314;2024-01-30T09:11:18;6.57;;;3.92;;
20318;SDS011;10317;47.254;11.314;2024-01-30T09:13:44;5.50;;;4.78;;
20318;SDS011;10317;47.254;11.314;2024-01-30T09:16:10;5.15;;;4.57;;
20318;SDS011;10317;47.254;11.314;2024-01-30T09:18:36;8.85;;;4.80;;
20318;SDS011;10317;47.254;11.314;2024-01-30T09:21:01;7.47;;;5.50;;
20318;SDS011;10317;47.254;11.314;2024-01-30T09:23:27;4.75;;;4.25;;
20318;SDS011;10317;47.254;11.314;2024-01-30T09:25:53;5.10;;;4.70;;
20318;SDS011;10317;47.254;11.314;2024-01-30T09:28:19;6.38;;;4.47;;
20318;SDS011;10317;47.254;11.314;2024-01-30T09:30:44;6.18;;;3.90;;
20318;SDS011;10317;47.254;11.314;2024-01-30T09:33:10;7.13;;;5.03;;
20318;SDS011;10317;47.254;11.314;2024-01-30T09:35:36;8.07;;;4.65;;
20318;SDS011;10317;47.254;11.314;2024-01-30T09:38:02;7.75;;;3.92;;
20318;SDS011;10317;47.254;11.314;2024-01-30T09:40:27;5.60;;;3.05;;
20318;SDS011;10317;47.254;11.314;2024-01-30T09:42:54;7.10;;;4.20;;
20318;SDS011;10317;47.254;11.314;2024-01-30T09:45:20;5.55;;;4.15;;
20318;SDS011;10317;47.254;11.314;2024-01-30T09:47:50;5.13;;;3.88;;
20318;SDS011;10317;47.254;11.314;2024-01-30T09:50:16;3.95;;;3.50;;
20318;SDS011;10317;47.254;11.314;2024-01-30T09:52:48;5.90;;;3.83;;
20318;SDS011;10317;47.254;11.314;2024-01-30T09:55:16;4.72;;;3.40;;
20318;SDS011;10317;47.254;11.314;2024-01-30T09:57:42;3.35;;;3.03;;
20318;SDS011;10317;47.254;11.314;2024-01-30T10:00:08;4.15;;;3.25;;
20318;SDS011;10317;47.254;11.314;2024-01-30T10:02:34;3.67;;;3.03;;
20318;SDS011;10317;47.254;11.314;2024-01-30T10:05:01;2.35;;;2.22;;
20318;SDS011;10317;47.254;11.314;2024-01-30T10:07:27;3.20;;;2.40;;
20318;SDS011;10317;47.254;11.314;2024-01-30T10:09:53;2.40;;;2.28;;
20318;SDS011;10317;47.254;11.314;2024-01-30T10:12:20;2.20;;;2.00;;
20318;SDS011;10317;47.254;11.314;2024-01-30T10:14:46;2.25;;;1.90;;
20318;SDS011;10317;47.254;11.314;2024-01-30T10:17:12;2.40;;;2.20;;
20318;SDS011;10317;47.254;11.314;2024-01-30T10:19:41;2.33;;;1.88;;
20318;SDS011;10317;47.254;11.314;2024-01-30T10:22:07;2.60;;;2.13;;
20318;SDS011;10317;47.254;11.314;2024-01-30T10:24:34;1.60;;;1.50;;
20318;SDS011;10317;47.254;11.314;2024-01-30T10:27:00;1.75;;;1.45;;
20318;SDS011;10317;47.254;11.314;2024-01-30T10:29:26;2.15;;;1.52;;
20318;SDS011;10317;47.254;11.314;2024-01-30T10:32:02;1.65;;;1.55;;
20318;SDS011;10317;47.254;11.314;2024-01-30T10:34:29;1.98;;;1.70;;
20318;SDS011;10317;47.254;11.314;2024-01-30T10:37:16;2.28;;;1.80;;
20318;SDS011;10317;47.254;11.314;2024-01-30T10:39:42;1.95;;;1.75;;
20318;SDS011;10317;47.254;11.314;2024-01-30T10:42:15;1.50;;;1.40;;
20318;SDS011;10317;47.254;11.314;2024-01-30T10:47:30;3.60;;;1.58;;
20318;SDS011;10317;47.254;11.314;2024-01-30T10:49:55;3.38;;;2.03;;
20318;SDS011;10317;47.254;11.314;2024-01-30T10:52:25;4.13;;;1.38;;
20318;SDS011;10317;47.254;11.314;2024-01-30T10:54:51;3.95;;;1.38;;
20318;SDS011;10317;47.254;11.314;2024-01-30T10:57:19;2.40;;;1.52;;
20318;SDS011;10317;47.254;11.314;2024-01-30T10:59:47;1.33;;;1.20;;
20318;SDS011;10317;47.254;11.314;2024-01-30T11:02:14;1.10;;;1.10;;
20318;SDS011;10317;47.254;11.314;2024-01-30T11:04:41;1.50;;;1.40;;
20318;SDS011;10317;47.254;11.314;2024-01-30T11:07:16;1.38;;;1.38;;
20318;SDS011;10317;47.254;11.314;2024-01-30T11:09:52;0.95;;;0.95;;
20318;SDS011;10317;47.254;11.314;2024-01-30T11:12:24;1.15;;;1.15;;
20318;SDS011;10317;47.254;11.314;2024-01-30T11:15:07;2.72;;;1.10;;
20318;SDS011;10317;47.254;11.314;2024-01-30T11:20:22;2.00;;;1.58;;
20318;SDS011;10317;47.254;11.314;2024-01-30T11:22:51;1.55;;;1.23;;
20318;SDS011;10317;47.254;11.314;2024-01-30T11:25:21;1.00;;;0.90;;
20318;SDS011;10317;47.254;11.314;2024-01-30T11:27:54;2.08;;;1.35;;
20318;SDS011;10317;47.254;11.314;2024-01-30T11:30:24;1.00;;;1.00;;
20318;SDS011;10317;47.254;11.314;2024-01-30T11:33:00;2.42;;;1.10;;
20318;SDS011;10317;47.254;11.314;2024-01-30T11:35:30;0.85;;;0.85;;
20318;SDS011;10317;47.254;11.314;2024-01-30T11:38:00;1.83;;;1.40;;
20318;SDS011;10317;47.254;11.314;2024-01-30T11:40:27;1.40;;;1.30;;
20318;SDS011;10317;47.254;11.314;2024-01-30T11:42:54;0.88;;;0.85;;
20318;SDS011;10317;47.254;11.314;2024-01-30T11:45:21;1.20;;;1.20;;
20318;SDS011;10317;47.254;11.314;2024-01-30T11:47:47;1.38;;;1.20;;
20318;SDS011;10317;47.254;11.314;2024-01-30T11:50:12;1.10;;;1.10;;
20318;SDS011;10317;47.254;11.314;2024-01-30T11:52:39;1.58;;;1.08;;
20318;SDS011;10317;47.254;11.314;2024-01-30T11:55:05;1.63;;;1.20;;
20318;SDS011;10317;47.254;11.314;2024-01-30T11:57:31;1.17;;;1.17;;
20318;SDS011;10317;47.254;11.314;2024-01-30T11:59:56;1.45;;;1.20;;
20318;SDS011;10317;47.254;11.314;2024-01-30T12:02:22;1.98;;;1.00;;
20318;SDS011;10317;47.254;11.314;2024-01-30T12:04:48;1.00;;;1.00;;
20318;SDS011;10317;47.254;11.314;2024-01-30T12:07:14;1.00;;;1.00;;
20318;SDS011;10317;47.254;11.314;2024-01-30T12:09:41;2.60;;;1.05;;
20318;SDS011;10317;47.254;11.314;2024-01-30T12:12:07;1.20;;;1.08;;
20318;SDS011;10317;47.254;11.314;2024-01-30T12:14:37;0.90;;;0.90;;
20318;SDS011;10317;47.254;11.314;2024-01-30T12:17:04;1.00;;;1.00;;
20318;SDS011;10317;47.254;11.314;2024-01-30T12:19:30;1.45;;;0.90;;
20318;SDS011;10317;47.254;11.314;2024-01-30T12:21:56;2.78;;;1.20;;
20318;SDS011;10317;47.254;11.314;2024-01-30T12:24:24;1.00;;;1.00;;
20318;SDS011;10317;47.254;11.314;2024-01-30T12:26:50;1.00;;;1.00;;
20318;SDS011;10317;47.254;11.314;2024-01-30T12:29:17;1.38;;;1.17;;
20318;SDS011;10317;47.254;11.314;2024-01-30T12:31:42;1.27;;;1.27;;
20318;SDS011;10317;47.254;11.314;2024-01-30T12:34:09;1.10;;;1.02;;
20318;SDS011;10317;47.254;11.314;2024-01-30T12:36:38;1.15;;;1.10;;
20318;SDS011;10317;47.254;11.314;2024-01-30T12:39:04;1.10;;;1.10;;
20318;SDS011;10317;47.254;11.314;2024-01-30T12:41:30;1.38;;;1.27;;
20318;SDS011;10317;47.254;11.314;2024-01-30T12:43:58;1.13;;;1.08;;
20318;SDS011;10317;47.254;11.314;2024-01-30T12:46:28;1.00;;;1.00;;
20318;SDS011;10317;47.254;11.314;2024-01-30T12:48:54;1.25;;;1.17;;
20318;SDS011;10317;47.254;11.314;2024-01-30T12:51:19;0.70;;;0.70;;
20318;SDS011;10317;47.254;11.314;2024-01-30T12:53:45;2.53;;;1.02;;
20318;SDS011;10317;47.254;11.314;2024-01-30T12:56:13;1.65;;;1.40;;
20318;SDS011;10317;47.254;11.314;2024-01-30T12:58:39;2.00;;;1.38;;
20318;SDS011;10317;47.254;11.314;2024-01-30T13:01:07;1.15;;;1.00;;
20318;SDS011;10317;47.254;11.314;2024-01-30T13:03:33;1.05;;;1.05;;
20318;SDS011;10317;47.254;11.314;2024-01-30T13:05:59;1.13;;;1.13;;
20318;SDS011;10317;47.254;11.314;2024-01-30T13:08:25;1.95;;;1.00;;
20318;SDS011;10317;47.254;11.314;2024-01-30T13:10:50;1.70;;;1.00;;
20318;SDS011;10317;47.254;11.314;2024-01-30T13:13:16;1.08;;;1.00;;
20318;SDS011;10317;47.254;11.314;2024-01-30T13:15:42;1.27;;;1.17;;
20318;SDS011;10317;47.254;11.314;2024-01-30T13:18:07;2.65;;;1.00;;
20318;SDS011;10317;47.254;11.314;2024-01-30T13:20:33;1.10;;;1.10;;
20318;SDS011;10317;47.254;11.314;2024-01-30T13:22:59;0.90;;;0.90;;
20318;SDS011;10317;47.254;11.314;2024-01-30T13:25:25;1.08;;;1.08;;
20318;SDS011;10317;47.254;11.314;2024-01-30T13:27:50;0.80;;;0.80;;
20318;SDS011;10317;47.254;11.314;2024-01-30T13:30:16;1.08;;;1.08;;
20318;SDS011;10317;47.254;11.314;2024-01-30T13:32:41;1.00;;;1.00;;
20318;SDS011;10317;47.254;11.314;2024-01-30T13:35:09;0.82;;;0.82;;
20318;SDS011;10317;47.254;11.314;2024-01-30T13:37:35;1.20;;;1.00;;
20318;SDS011;10317;47.254;11.314;2024-01-30T13:40:02;0.80;;;0.80;;
20318;SDS011;10317;47.254;11.314;2024-01-30T13:42:32;0.90;;;0.90;;
20318;SDS011;10317;47.254;11.314;2024-01-30T13:44:57;1.00;;;1.00;;
20318;SDS011;10317;47.254;11.314;2024-01-30T13:47:23;1.17;;;1.10;;
20318;SDS011;10317;47.254;11.314;2024-01-30T13:49:50;1.55;;;1.00;;
20318;SDS011;10317;47.254;11.314;2024-01-30T13:52:17;1.85;;;1.10;;
20318;SDS011;10317;47.254;11.314;2024-01-30T13:54:43;1.30;;;1.20;;
20318;SDS011;10317;47.254;11.314;2024-01-30T13:57:09;0.90;;;0.90;;
20318;SDS011;10317;47.254;11.314;2024-01-30T13:59:35;1.00;;;1.00;;
20318;SDS011;10317;47.254;11.314;2024-01-30T14:02:00;0.90;;;0.90;;
20318;SDS011;10317;47.254;11.314;2024-01-30T14:04:26;2.30;;;0.95;;
20318;SDS011;10317;47.254;11.314;2024-01-30T14:06:52;1.27;;;1.17;;
20318;SDS011;10317;47.254;11.314;2024-01-30T14:09:17;1.50;;;0.98;;
20318;SDS011;10317;47.254;11.314;2024-01-30T14:11:43;0.95;;;0.95;;
20318;SDS011;10317;47.254;11.314;2024-01-30T14:14:09;1.00;;;1.00;;
20318;SDS011;10317;47.254;11.314;2024-01-30T14:16:34;0.80;;;0.80;;
20318;SDS011;10317;47.254;11.314;2024-01-30T14:19:00;2.50;;;0.95;;
20318;SDS011;10317;47.254;11.314;2024-01-30T14:21:26;1.00;;;1.00;;
20318;SDS011;10317;47.254;11.314;2024-01-30T14:23:51;0.85;;;0.85;;
20318;SDS011;10317;47.254;11.314;2024-01-30T14:26:17;1.00;;;1.00;;
20318;SDS011;10317;47.254;11.314;2024-01-30T14:28:43;0.90;;;0.90;;
20318;SDS011;10317;47.254;11.314;2024-01-30T14:31:10;1.08;;;1.08;;
20318;SDS011;10317;47.254;11.314;2024-01-30T14:33:36;0.82;;;0.82;;